Create Custom Reports and Graphics: Custom Report

Stanford Met Tower

Current Conditions

6/18/19 5:00 PM (-07:00)
Updated Every 15 Minutes
Temp 76.2 °F   0.1
RH 46 %   3
Dew Pt 58.0 °F   0.8
Wind Dir NNE | 14 °
Wind Spd 6.0 mph   0.5
Wind Gust 8.9 mph   1.1
Solar Rad 432 W/m2   15
Daily Min Temp 56.6 °F   0.9
Daily Max Temp 83.1 °F   0.7
Daily Max Wind 13.5 mph   0.2
Daily Rain 0.00 In
Min Temp Yest 55.8 °F
Max Temp Yest 82.4 °F
Max Wind Yest 13.3 mph
Rain Yest 0.00 In
Seasonal Rainfall 18.02 In

Last 48 Hours

Stanford Met Tower

Hourly Data | America/Los_Angeles
as of 6/18/19 6:13 PM PDT
Date & Time Temp (°F) Upper Temp (°F) Temp Inversion (°F) RH (%) Dew Pt (°F) Wind Dir (°) Wind Spd (mph) Wind Gust (mph) Latest Rain (In) ETo Hr (in) ETo 2pm (In) Daily Rain (In) Daily Min Temp (°F) Daily Max Temp (°F)
6/18/19 - 1700 76.1 69.6 -6.5 46 57.4 NNE | 17 6.2 10.9 0.00 0.014 0.24 0.00 56.6 83.1
6/18/19 - 1600 77.3 71.0 -6.4 45 57.7 N | 9 6.9 11.9 0.00 0.019 0.24 0.00 56.6 83.1
6/18/19 - 1500 79.2 70.8 -8.4 45 58.2 N | 8 7.6 12.6 0.00 0.024 0.24 0.00 56.6 83.1
6/18/19 - 1400 80.2 72.3 -7.9 44 59.0 N | 3 7.3 12.9 0.00 0.026 0.24 0.00 56.6 83.1
6/18/19 - 1300 81.8 72.0 -9.8 47 59.9 N | 353 7.4 13.3 0.00 0.027 0.21 0.00 56.6 83.1
6/18/19 - 1200 78.8 71.3 -7.5 50 59.6 NNW | 346 7.4 13.5 0.00 0.026 0.21 0.00 56.6 82.0
6/18/19 - 1100 78.8 72.1 -6.7 48 60.3 N | 7 5.8 11.1 0.00 0.025 0.21 0.00 56.6 82.0
6/18/19 - 1000 77.1 72.0 -5.1 46 59.4 N | 352 3.3 12.7 0.00 0.021 0.21 0.00 56.6 79.7
6/18/19 - 0900 73.8 68.4 -5.4 50 59.0 NNW | 344 3.4 7.6 0.00 0.015 0.21 0.00 56.6 75.5
6/18/19 - 0800 68.5 65.8 -2.7 60 58.1 ENE | 78 2.0 3.7 0.00 0.002 0.21 0.00 56.6 69.1
6/18/19 - 0600 61.7 60.7 -1.0 84 56.9 SE | 124 2.6 6.4 0.00 0.001 0.21 0.00 56.6 61.7
6/18/19 - 0500 60.8 60.7 -0.1 86 56.4 SE | 138 2.1 4.8 0.00 0.000 0.21 0.00 56.6 61.1
6/18/19 - 0400 60.7 60.6 -0.1 88 56.5 WSW | 243 1.4 3.8 0.00 0.000 0.21 0.00 56.6 60.9
6/18/19 - 0300 60.2 60.3 0.1 89 56.4 NW | 315 1.8 3.5 0.00 0.000 0.21 0.00 56.6 60.6
6/18/19 - 0200 59.1 59.6 0.5 90 55.2 W | 269 1.5 2.6 0.00 0.000 0.21 0.00 56.6 59.3
6/18/19 - 0100 57.0 59.5 2.5 88 53.1 NNW | 338 1.3 3.0 0.00 0.000 0.21 0.00 56.6 59.0
6/18/19 - 0000 59.0 60.2 1.3 87 54.2 NNE | 19 3.0 5.9 0.00 0.000 0.21 0.00 55.8 82.4
6/17/19 - 2300 60.0 61.1 1.1 85 54.8 N | 357 2.9 6.7 0.00 0.000 0.21 0.00 55.8 82.4
6/17/19 - 2200 60.9 61.6 0.8 86 55.9 N | 9 3.8 7.3 0.00 0.000 0.21 0.00 55.8 82.4
6/17/19 - 2100 62.3 63.1 0.8 78 56.4 N | 4 3.8 6.8 0.00 0.000 0.21 0.00 55.8 82.4
6/17/19 - 2000 65.5 65.1 -0.4 72 56.8 NNW | 347 4.2 6.9 0.00 0.000 0.21 0.00 55.8 82.4
6/17/19 - 1900 69.4 67.8 -1.6 59 57.2 N | 4 4.6 7.4 0.00 0.003 0.21 0.00 55.8 82.4
6/17/19 - 1800 74.0 70.1 -3.9 43 56.8 NNE | 21 5.7 10.6 0.00 0.008 0.21 0.00 55.8 82.4
6/17/19 - 1700 75.6 71.0 -4.6 43 57.2 N | 7 7.1 11.5 0.00 0.014 0.21 0.00 55.8 82.4
6/17/19 - 1600 79.2 72.2 -7.0 40 56.6 N | 3 7.5 13.3 0.00 0.019 0.21 0.00 55.8 82.4
6/17/19 - 1500 80.3 73.5 -6.8 42 57.7 N | 349 7.4 13.2 0.00 0.023 0.21 0.00 55.8 82.4
6/17/19 - 1400 79.1 72.3 -6.8 43 57.7 N | 356 7.5 12.6 0.00 0.026 0.21 0.00 55.8 82.4
6/17/19 - 1300 79.2 72.9 -6.3 42 57.1 N | 356 6.8 11.6 0.00 0.026 0.19 0.00 55.8 82.3
6/17/19 - 1200 79.0 70.4 -8.6 45 57.7 NNW | 345 5.7 12.2 0.00 0.026 0.19 0.00 55.8 81.0
6/17/19 - 1100 76.5 70.4 -6.1 43 56.5 N | 6 4.8 11.5 0.00 0.024 0.19 0.00 55.8 79.1
6/17/19 - 1000 74.5 67.2 -7.4 46 55.6 WNW | 296 3.9 9.1 0.00 0.020 0.19 0.00 55.8 75.1
6/17/19 - 0900 67.6 65.1 -2.5 46 53.4 N | 3 3.2 6.3 0.00 0.015 0.19 0.00 55.8 71.4
6/17/19 - 0800 66.2 61.4 -4.8 53 54.5 ESE | 105 3.4 7.1 0.00 0.009 0.19 0.00 55.8 66.3
6/17/19 - 0700 61.1 59.6 -1.5 72 54.8 SSE | 168 2.3 6.0 0.00 0.003 0.19 0.00 55.8 61.2
6/17/19 - 0600 57.5 57.5 0.1 81 51.3 SSW | 195 2.0 4.5 0.00 0.000 0.19 0.00 55.8 59.3
6/17/19 - 0500 56.1 56.2 0.1 79 50.0 SSW | 211 3.5 6.6 0.00 0.000 0.19 0.00 55.8 59.3
6/17/19 - 0400 56.6 56.6 -0.1 77 50.2 SSW | 213 4.1 7.6 0.00 0.000 0.19 0.00 56.6 59.3
6/17/19 - 0300 58.1 57.9 -0.1 79 52.2 SSE | 168 3.0 6.4 0.00 0.000 0.19 0.00 58.0 59.3
6/17/19 - 0200 58.8 58.7 -0.1 81 53.4 SE | 125 3.9 8.5 0.00 0.000 0.19 0.00 58.5 59.2
6/17/19 - 0100 58.8 58.5 -0.3 81 53.6 ESE | 117 4.0 8.1 0.00 0.000 0.19 0.00 58.6 59.2
6/17/19 - 0000 59.0 58.8 -0.3 81 53.2 ESE | 111 3.7 7.2 0.00 0.000 0.19 0.00 55.1 75.6
6/16/19 - 2300 58.5 58.4 -0.1 80 53.0 E | 85 3.4 6.4 0.00 0.000 0.19 0.00 55.1 75.6
6/16/19 - 2200 58.6 58.3 -0.4 80 52.2 E | 90 4.5 8.7 0.00 0.000 0.19 0.00 55.1 75.6
6/16/19 - 2100 57.7 58.0 0.3 77 51.0 E | 96 4.2 7.2 0.00 0.000 0.19 0.00 55.1 75.6
6/16/19 - 2000 59.7 59.3 -0.4 70 50.9 NE | 49 3.8 6.2 0.00 0.000 0.19 0.00 55.1 75.6
6/16/19 - 1900 63.2 61.5 -1.7 61 52.0 NNE | 30 5.5 9.0 0.00 0.003 0.19 0.00 55.1 75.6
6/16/19 - 1800 68.9 65.4 -3.4 45 53.0 NE | 43 6.6 11.0 0.00 0.008 0.19 0.00 55.1 75.6
Max 81.8 73.5 2.5 90 60.3 - 7.6 13.5 0.00 0.027 0.24 0.00 58.6 83.1
Avg 67.5 64.6 -2.9 64 55.5 - 4.4 8.5 0.00 0.009 0.21 - - -
Min 56.1 56.2 -9.8 40 50.0 - 1.3 2.6 0.00 0.000 0.19 0.00 55.1 59.0
Total - - - - - - - - 0.00 0.427 - - - -
Calm: 0.0%
Calm: 0.0%